Latest Weather Observations for Green Cape

IDN60801

Issued at 9:12 am EST Wednesday 18 September 2019 (issued every 10 minutes, with the page automatically refreshed every 10 minutes)

About weather observations | Map of weather stations | Latest weather observations for NSW | Other Formats
Station Details ID: 069137 Name: GREEN CAPE AWS Lat: -37.26 Lon: 150.05 Height: 19.4 m
Data from the previous 72 hours. | See also: Recent months at Green Cape
Date/Time
EST
Temp
°C
App
Temp
°C
Dew
Point
°C
Rel
Hum
%
Delta-T
°C
Wind Press
QNH
hPa
Press
MSL
hPa
Rain since
9am
mm
Dir  Spd
km/h
Gust
km/h
Spd
kts
Gust
kts
18/09:00am 11.0 8.8 7.7 80 1.6 W 9 13 5 7 1030.8 1030.8 0.8
18/08:30am 9.2 5.5 6.5 83 1.3 W 15 17 8 9 1030.7 1030.7 0.8
18/08:00am 8.2 3.7 6.2 87 0.9 W 19 20 10 11 1030.7 1030.7 0.8
18/07:30am 8.8 5.2 6.6 86 1.0 W 15 19 8 10 1030.6 1030.6 0.8
18/07:00am 8.5 4.8 6.3 86 1.0 W 15 19 8 10 1030.5 1030.5 0.8
18/06:30am 8.1 4.0 6.2 88 0.9 W 17 19 9 10 1030.3 1030.3 0.8
18/06:00am 7.8 3.6 5.9 88 0.9 W 17 20 9 11 1030.1 1030.1 0.8
18/05:30am 8.1 4.3 5.7 85 1.1 WNW 15 17 8 9 1029.8 1029.8 0.8
18/05:00am 8.6 5.1 5.5 81 1.4 WNW 13 17 7 9 1029.7 1029.7 0.8
18/04:30am 8.2 4.4 5.8 85 1.1 W 15 19 8 10 1029.6 1029.6 0.8
18/04:00am 8.6 4.0 5.5 81 1.4 W 19 24 10 13 1029.7 1029.7 0.8
18/03:30am 8.8 4.3 6.1 83 1.2 WNW 19 24 10 13 1029.7 1029.7 0.8
18/03:00am 8.4 4.3 6.2 86 1.0 W 17 22 9 12 1029.7 1029.7 0.8
18/02:30am 8.9 4.8 6.3 84 1.2 W 17 19 9 10 1029.8 1029.8 0.8
18/02:00am 8.8 5.1 6.4 85 1.1 W 15 19 8 10 1029.9 1029.9 0.8
18/01:30am 9.0 5.3 6.3 83 1.2 W 15 17 8 9 1030.3 1030.3 0.8
18/01:00am 9.5 7.0 6.4 81 1.4 W 9 11 5 6 1030.4 1030.4 0.8
18/12:30am 9.6 7.1 6.7 82 1.4 W 9 13 5 7 1030.5 1030.5 0.8
18/12:00am 9.6 6.7 6.3 80 1.5 W 11 17 6 9 1030.4 1030.4 0.8
 
Date/Time
EST
Temp
°C
App
Temp
°C
Dew
Point
°C
Rel
Hum
%
Delta-T
°C
Wind Press
QNH
hPa
Press
MSL
hPa
Rain since
9am
mm
Dir  Spd
km/h
Gust
km/h
Spd
kts
Gust
kts
17/11:30pm 10.4 8.0 6.9 79 1.7 W 9 13 5 7 1030.5 1030.5 0.8
17/11:00pm 11.0 8.5 6.6 74 2.1 W 9 13 5 7 1030.4 1030.4 0.8
17/10:30pm 12.5 8.7 5.9 64 3.1 ENE 15 20 8 11 1030.4 1030.4 0.8
17/10:00pm 12.4 9.0 5.8 64 3.1 ENE 13 19 7 10 1030.4 1030.4 0.8
17/09:30pm 12.1 8.8 4.3 59 3.5 E 11 17 6 9 1030.4 1030.4 0.8
17/09:00pm 12.6 9.1 5.5 62 3.3 ENE 13 19 7 10 1030.4 1030.4 0.8
17/08:30pm 12.3 9.2 5.7 64 3.1 E 11 17 6 9 1030.2 1030.2 0.8
17/08:00pm 12.4 8.2 5.6 63 3.1 E 17 22 9 12 1029.8 1029.8 0.8
17/07:30pm 12.5 9.1 6.1 65 3.0 ESE 13 19 7 10 1029.4 1029.4 0.8
17/07:00pm 12.1 8.5 4.8 61 3.3 ESE 13 19 7 10 1029.1 1029.1 0.8
17/06:30pm 12.3 8.9 5.9 65 3.0 ESE 13 19 7 10 1028.7 1028.7 0.8
17/06:00pm 12.3 8.5 5.7 64 3.1 ESE 15 19 8 10 1028.5 1028.5 0.8
17/05:30pm 12.3 9.2 5.5 63 3.2 ESE 11 19 6 10 1028.4 1028.4 0.8
17/05:00pm 12.7 8.5 5.6 62 3.3 ESE 17 24 9 13 1028.1 1028.1 0.8
17/04:30pm 13.2 9.0 5.6 60 3.6 E 17 22 9 12 1028.0 1028.0 0.8
17/04:00pm 13.3 9.5 5.9 61 3.5 E 15 20 8 11 1027.9 1027.9 0.8
17/03:30pm 13.9 9.5 6.7 62 3.5 E 19 24 10 13 1027.8 1027.8 0.6
17/03:00pm 13.8 9.3 7.1 64 3.2 E 20 28 11 15 1027.7 1027.7 0.6
17/02:30pm 14.0 9.2 7.3 64 3.3 ESE 22 26 12 14 1027.5 1027.5 0.6
17/02:00pm 13.8 8.3 7.6 66 3.0 ESE 26 30 14 16 1027.4 1027.4 0.6
17/01:30pm 14.1 9.4 7.9 66 3.1 ESE 22 30 12 16 1027.4 1027.4 0.6
17/01:00pm 13.3 8.5 7.5 68 2.8 ESE 22 30 12 16 1027.2 1027.2 0.6
17/12:30pm 11.9 7.4 8.7 81 1.6 SSE 22 30 12 16 1027.3 1027.3 0.6
17/12:00pm 11.7 8.1 9.8 88 1.0 SSE 19 26 10 14 1027.5 1027.5 0.6
17/11:30am 11.3 6.4 9.9 91 0.7 SSW 26 30 14 16 1027.6 1027.6 0.6
17/11:00am 10.9 7.3 9.8 93 0.6 SW 19 24 10 13 1027.6 1027.6 0.6
17/10:30am 10.2 6.3 9.4 95 0.4 W 20 26 11 14 1027.6 1027.6 0.6
17/10:00am 10.0 6.2 9.2 95 0.4 WSW 19 22 10 12 1027.6 1027.6 0.6
17/09:30am 9.2 5.0 8.4 95 0.4 W 20 26 11 14 1027.4 1027.4 0.6
17/09:00am 9.0 4.8 8.1 94 0.4 W 20 24 11 13 1027.5 1027.5 6.6
17/08:30am 9.1 4.9 8.2 94 0.4 WSW 20 24 11 13 1027.1 1027.1 5.0
17/08:00am 8.5 5.8 7.4 93 0.5 W 11 15 6 8 1026.9 1026.9 4.6
17/07:30am 9.1 4.4 7.9 92 0.6 WSW 22 30 12 16 1026.2 1026.2 3.8
17/07:00am 8.2 3.9 6.8 91 0.6 W 19 26 10 14 1026.1 1026.1 3.8
17/06:30am 8.1 3.5 6.7 91 0.6 W 20 28 11 15 1025.7 1025.7 3.8
17/06:00am 8.4 4.1 7.0 91 0.6 WSW 19 26 10 14 1025.1 1025.1 3.8
17/05:30am 8.1 3.6 6.9 92 0.6 WSW 20 24 11 13 1025.0 1025.0 3.6
17/05:00am 8.4 3.1 6.9 90 0.7 SSW 24 26 13 14 1024.6 1024.6 3.0
17/04:30am 8.8 3.7 6.1 83 1.2 WSW 22 26 12 14 1024.7 1024.7 1.6
17/04:00am 9.0 4.3 5.9 81 1.4 W 20 24 11 13 1024.3 1024.3 0.8
17/03:30am 9.4 3.5 5.6 77 1.7 W 26 32 14 17 1023.9 1023.9 0.6
17/03:00am 9.9 3.5 5.3 73 2.1 WSW 28 32 15 17 1023.9 1023.9 0.6
17/02:30am 10.2 2.6 6.0 75 1.9 SW 35 43 19 23 1023.7 1023.7 0.6
17/02:00am 9.1 3.1 5.1 76 1.8 W 26 32 14 17 1023.6 1023.6 0.6
17/01:30am 9.4 3.0 5.0 74 2.0 W 28 33 15 18 1023.8 1023.8 0.6
17/01:00am 9.8 3.8 5.2 73 2.1 WSW 26 30 14 16 1023.9 1023.9 0.6
17/12:30am 9.7 3.6 4.9 72 2.2 WSW 26 30 14 16 1024.1 1024.1 0.6
17/12:00am 9.8 4.9 5.2 73 2.1 WSW 20 24 11 13 1024.0 1024.0 0.6
 
Date/Time
EST
Temp
°C
App
Temp
°C
Dew
Point
°C
Rel
Hum
%
Delta-T
°C
Wind Press
QNH
hPa
Press
MSL
hPa
Rain since
9am
mm
Dir  Spd
km/h
Gust
km/h
Spd
kts
Gust
kts
16/11:30pm 9.9 3.5 5.3 73 2.1 WSW 28 33 15 18 1023.4 1023.4 0.6
16/11:00pm 10.0 3.6 5.2 72 2.2 WSW 28 32 15 17 1023.2 1023.2 0.6
16/10:30pm 9.9 4.6 5.1 72 2.2 W 22 28 12 15 1023.3 1023.3 0.6
16/10:00pm 10.4 4.7 5.0 69 2.4 W 24 30 13 16 1023.3 1023.3 0.6
16/09:30pm 10.8 4.3 4.9 67 2.7 WSW 28 32 15 17 1023.2 1023.2 0.6
16/09:00pm 11.2 3.8 5.1 66 2.8 SW 33 41 18 22 1023.0 1023.0 0.6
16/08:30pm 11.2 3.4 4.7 64 2.9 SW 35 43 19 23 1022.6 1022.6 0.6
16/08:00pm 11.3 3.2 5.2 66 2.8 SW 37 44 20 24 1022.1 1022.1 0.6
16/07:30pm 11.4 3.6 5.1 65 2.9 SW 35 43 19 23 1022.0 1022.0 0.6
16/07:00pm 11.5 3.9 5.6 67 2.7 SW 35 43 19 23 1021.7 1021.7 0.6
16/06:30pm 11.5 2.6 5.2 65 2.9 SW 41 48 22 26 1021.1 1021.1 0.6
16/06:00pm 11.7 3.0 5.8 67 2.7 SW 41 48 22 26 1020.7 1020.7 0.6
16/05:30pm 11.6 2.2 5.5 66 2.8 SW 44 52 24 28 1020.2 1020.2 0.6
16/05:00pm 11.7 3.8 6.2 69 2.6 SW 37 46 20 25 1019.8 1019.8 0.6
16/04:30pm 11.7 4.1 6.0 68 2.7 SW 35 46 19 25 1019.6 1019.6 0.6
16/04:00pm 11.6 3.7 6.3 70 2.5 SW 37 44 20 24 1019.2 1019.2 0.6
16/03:30pm 11.4 4.4 6.1 70 2.5 SW 32 37 17 20 1018.8 1018.8 0.6
16/03:00pm 11.4 3.5 6.3 71 2.4 WSW 37 46 20 25 1018.4 1018.4 0.6
16/02:35pm 11.8 3.3 7.1 73 2.3 SW 41 59 22 32 1017.7 1017.7 0.6
16/02:30pm 11.7 3.2 7.0 73 2.2 SW 41 52 22 28 1017.6 1017.6 0.6
16/02:00pm 11.9 4.5 8.2 78 1.8 SW 37 43 20 23 1017.4 1017.4 0.6
16/01:30pm 11.1 4.0 8.0 81 1.5 SW 35 46 19 25 1017.4 1017.4 0.6
16/01:00pm 11.8 3.0 7.9 77 1.9 SW 44 52 24 28 1017.2 1017.2 0.6
16/12:30pm 11.9 4.7 7.8 76 2.0 SW 35 41 19 22 1017.1 1017.1 0.6
16/12:00pm 11.8 4.0 8.3 79 1.7 SW 39 44 21 24 1017.0 1017.0 0.6
16/11:30am 11.3 3.1 8.2 81 1.5 SW 41 48 22 26 1017.1 1017.1 0.6
16/11:00am 10.9 2.3 8.1 83 1.4 WSW 43 50 23 27 1016.7 1016.7 0.6
16/10:30am 10.4 0.9 8.3 87 1.0 SW 48 57 26 31 1016.9 1016.9 0.6
16/10:00am 10.4 0.5 8.3 87 1.0 SW 50 59 27 32 1016.9 1016.9 0.4
16/09:30am 11.3 3.0 7.6 78 1.8 SW 41 56 22 30 1017.3 1017.3 0.0
16/09:12am 11.7 0.5 7.6 76 2.0 SW 56 76 30 41 1016.3 1016.3 0.0
16/09:00am 11.9 0.5 7.4 74 2.2 WSW 57 72 31 39 1015.8 1015.8 0.0
16/08:30am 12.4 0.5 8.7 78 1.8 SW 61 72 33 39 1015.5 1015.5 0.0
16/08:00am 12.3 1.2 8.2 76 2.0 WSW 56 63 30 34 1015.2 1015.2 0.0
16/07:30am 11.9 1.6 9.6 86 1.2 SW 54 67 29 36 1014.4 1014.4 0.0
16/07:00am 13.2 3.9 10.6 84 1.4 SW 50 57 27 31 1014.1 1014.1 0.0
16/06:30am 13.8 6.2 11.7 87 1.1 SW 43 48 23 26 1014.3 1014.3 0.0
16/06:23am 13.9 6.7 11.9 88 1.1 SSW 41 48 22 26 1014.1 1014.1 0.0
16/06:00am 14.9 8.1 12.0 83 1.6 SSW 39 44 21 24 1013.7 1013.7 0.0
16/05:30am 15.4 11.5 12.0 80 1.8 SSW 24 32 13 17 1013.3 1013.3 0.0
16/05:00am 15.0 10.7 12.0 82 1.6 SSW 26 32 14 17 1012.8 1012.8 0.0
16/04:30am 15.1 11.7 12.4 84 1.5 WSW 22 39 12 21 1011.4 1011.4 0.0
16/04:00am 15.5 11.6 13.2 86 1.3 N 26 32 14 17 1010.5 1010.5 0.0
16/03:30am 15.1 10.8 13.1 88 1.1 N 28 32 15 17 1010.8 1010.8 0.0
16/03:00am 15.2 10.9 13.2 88 1.1 N 28 32 15 17 1010.9 1010.9 0.0
16/02:30am 14.8 11.4 12.5 86 1.3 N 22 28 12 15 1011.0 1011.0 0.0
16/02:00am 14.8 12.2 11.9 83 1.6 N 17 20 9 11 1011.9 1011.9 0.0
16/01:30am 15.0 14.3 12.0 82 1.6 N 7 9 4 5 1012.4 1012.4 0.0
16/01:00am 14.9 15.2 12.2 84 1.5 S 2 4 1 2 1013.0 1013.0 0.0
16/12:30am 15.2 13.5 12.3 83 1.6 SSW 13 19 7 10 1013.6 1013.6 0.0
16/12:00am 15.6 12.2 12.4 81 1.8 SSW 22 24 12 13 1013.8 1013.8 0.0
 
Date/Time
EST
Temp
°C
App
Temp
°C
Dew
Point
°C
Rel
Hum
%
Delta-T
°C
Wind Press
QNH
hPa
Press
MSL
hPa
Rain since
9am
mm
Dir  Spd
km/h
Gust
km/h
Spd
kts
Gust
kts
15/11:30pm 16.0 11.1 12.4 79 2.0 SSW 30 32 16 17 1014.3 1014.3 0.0
15/11:00pm 16.1 10.2 12.5 79 2.0 SSW 35 39 19 21 1014.4 1014.4 0.0
15/10:30pm 16.2 13.7 12.2 77 2.2 SW 17 19 9 10 1014.7 1014.7 0.0
15/10:00pm 16.5 12.3 12.3 76 2.3 SSW 26 30 14 16 1014.7 1014.7 0.0
15/09:30pm 18.2 12.5 11.3 64 3.8 SSW 32 50 17 27 1014.6 1014.6 0.0
15/09:14pm 17.5 14.9 10.6 64 3.7 WSW 15 37 8 20 1014.7 1014.7 0.0
15/09:00pm 18.6 17.6 10.2 58 4.5 W 6 9 3 5 1014.5 1014.5 0.0
15/08:30pm 20.4 19.6 9.6 50 5.8 W 4 17 2 9 1014.4 1014.4 0.0
15/08:00pm 18.4 17.2 11.7 65 3.7 NW 9 15 5 8 1014.3 1014.3 0.0
15/07:30pm 17.2 16.8 12.9 76 2.4 NNW 7 13 4 7 1014.2 1014.2 0.0
15/07:00pm 17.1 16.1 13.4 79 2.1 N 11 15 6 8 1013.7 1013.7 0.0
15/06:30pm 17.1 15.6 13.2 78 2.2 N 13 15 7 8 1013.6 1013.6 0.0
15/06:00pm 17.2 15.4 13.3 78 2.2 N 15 17 8 9 1013.6 1013.6 0.0
15/05:30pm 17.4 14.8 13.1 76 2.4 N 19 20 10 11 1013.7 1013.7 0.0
15/05:00pm 17.6 14.4 13.1 75 2.5 N 22 24 12 13 1014.0 1014.0 0.0
15/04:30pm 17.3 14.1 13.0 76 2.4 N 22 26 12 14 1013.7 1013.7 0.0
15/04:00pm 17.3 14.4 13.0 76 2.4 N 20 24 11 13 1014.0 1014.0 0.0
15/03:30pm 17.4 13.7 12.7 74 2.6 N 24 24 13 13 1014.0 1014.0 0.0
15/03:00pm 17.4 14.6 12.7 74 2.6 N 19 20 10 11 1014.4 1014.4 0.0
15/02:30pm 17.5 13.9 11.8 69 3.1 N 22 24 12 13 1014.7 1014.7 0.0
15/02:00pm 18.8 15.9 13.0 69 3.3 N 20 22 11 12 1015.1 1015.1 0.0
15/01:30pm 18.7 15.9 13.1 70 3.2 N 20 24 11 13 1015.4 1015.4 0.0
15/01:00pm 17.6 15.0 13.1 75 2.5 N 19 20 10 11 1015.9 1015.9 0.0
15/12:30pm 17.4 15.1 12.9 75 2.5 N 17 20 9 11 1016.3 1016.3 0.0
15/12:00pm 17.6 14.5 12.3 71 2.9 NNE 20 22 11 12 1016.9 1016.9 0.0
15/11:30am 16.5 14.1 12.7 78 2.1 N 17 20 9 11 1017.3 1017.3 0.0
15/11:00am 16.1 13.9 12.1 77 2.2 NNE 15 19 8 10 1017.1 1017.1 0.0
15/10:30am 15.9 14.0 11.7 76 2.3 N 13 17 7 9 1018.0 1018.0 0.0
15/10:00am 15.6 13.6 11.4 76 2.3 N 13 17 7 9 1018.4 1018.4 0.0
15/09:30am 15.7 15.0 11.5 76 2.3 N 6 13 3 7 1018.8 1018.8 0.0

Other formats

Comma delimited format used in spreadsheet applications
http://www.bom.gov.au/fwo/IDN60801/IDN60801.94934.axf

JavaScript Object Notation format (JSON) in row-major order
http://www.bom.gov.au/fwo/IDN60801/IDN60801.94934.json

Data quality

Most of these data are generated automatically and are frequently updated. Quality checks on data are not normally performed. It is possible for incorrect values to appear. Refer to information at About Latest Weather Observations and please check the disclaimer before using these data.